Finnhawk — OJNL — position and weather

sailwx.info

Track history (hours):
 
Tides and Currents Weather Stations Pressure Air Temp Water Temp Dewpoint Dewpoint Depression Visibility Wind Speed Wind Dir Waves Ship Positions

Finnhawk

Last reported at 2015-Aug-28 02:33 UTC. Time now 2015-Aug-28 07:35 UTC.
Position N 59°41' E 024°04'.

Length 163 m; draft 5.9 m.

Type: Ship. MMSI: 230007000.

Date/timePositionNaut miles runAvg speedWind from/ knotsBaromVisibWave heightAir tempDewpointWater temp
2015-Aug-28 02:33N 59°41' E 024°04'1716.9
2015-Aug-28 01:33N 59°35' E 023°33'21716.4
2015-Aug-27 12:18N 56°29' E 020°02'3117.6
2015-Aug-27 10:33N 55°59' E 019°44'1817.7
2015-Aug-27 09:33N 55°43' E 019°34'1817.6
2015-Aug-27 08:33N 55°26' E 019°24'1817.8
2015-Aug-27 07:33N 55°09' E 019°14'1817.6
2015-Aug-27 06:33N 54°53' E 019°05'1818.1
2015-Aug-27 05:34N 54°36' E 018°54'1312.8
2015-Aug-27 04:33N 54°32' E 018°33'1 0.6
2015-Aug-27 03:33N 54°32' E 018°32'0 0.0
2015-Aug-27 02:33N 54°32' E 018°32'0 0.0
2015-Aug-27 01:33N 54°32' E 018°32'0 0.0
2015-Aug-27 00:33N 54°32' E 018°32'0 0.0
2015-Aug-26 23:33N 54°32' E 018°32'0 0.0
2015-Aug-26 22:33N 54°32' E 018°32'0 0.0
2015-Aug-26 21:30N 54°32' E 018°32'0 0.5
2015-Aug-26 20:33N 54°32' E 018°32'1110.5
2015-Aug-26 19:34N 54°34' E 018°50'1515.0
2015-Aug-26 18:34N 54°47' E 019°01'1615.9
2015-Aug-26 17:33N 55°02' E 019°10'1615.7
2015-Aug-26 16:33N 55°17' E 019°18'1615.6
2015-Aug-26 15:33N 55°32' E 019°27'26815.4
2015-Aug-25 22:11N 59°34' E 023°04'1016.4
2015-Aug-25 21:34N 59°37' E 023°23'1616.1
2015-Aug-25 20:33N 59°43' E 023°53'1616.3
2015-Aug-25 19:33N 59°49' E 024°23'1616.4
2015-Aug-25 18:34N 59°55' E 024°53'1615.9
2015-Aug-25 17:34N 60°08' E 025°12'5 0.5
2015-Aug-25 07:12N 60°13' E 025°12'0 0.0
2015-Aug-25 06:33N 60°13' E 025°12'0 0.0
2015-Aug-25 05:30N 60°13' E 025°12'0 0.0
2015-Aug-25 04:30N 60°13' E 025°12'0 0.0
2015-Aug-25 03:30N 60°13' E 025°12'0 0.0
2015-Aug-24 23:09N 60°13' E 025°12'0 0.0
2015-Aug-24 19:30N 60°13' E 025°12'0 0.0
2015-Aug-24 18:33N 60°13' E 025°12'0 0.0
2015-Aug-24 17:27N 60°13' E 025°12'21 1.6
2015-Aug-24 04:29N 59°53' E 024°59'1515.4
2015-Aug-24 03:31N 59°45' E 024°34'1616.8
2015-Aug-24 02:33N 59°41' E 024°04'1716.7
2015-Aug-24 01:33N 59°36' E 023°32'1716.8
2015-Aug-24 00:33N 59°30' E 023°01'1717.4
2015-Aug-23 23:33N 59°23' E 022°30'1717.1
2015-Aug-23 22:33N 59°12' E 022°03'15617.1
2015-Aug-23 13:25N 56°47' E 020°14'1517.4
2015-Aug-23 12:33N 56°33' E 020°05'1717.2
2015-Aug-23 11:33N 56°17' E 019°55'1717.2
2015-Aug-23 10:34N 56°01' E 019°44'1817.5
2015-Aug-23 09:33N 55°45' E 019°33'1817.5
2015-Aug-23 08:33N 55°28' E 019°24'1817.6
2015-Aug-23 07:33N 55°11' E 019°15'1817.6
2015-Aug-23 06:33N 54°54' E 019°05'1817.8
2015-Aug-23 05:33N 54°37' E 018°55'1312.9
2015-Aug-23 04:33N 54°32' E 018°35'2 1.9
2015-Aug-23 03:32N 54°32' E 018°32'0 0.0
2015-Aug-23 02:32N 54°32' E 018°32'0 0.0
2015-Aug-23 01:32N 54°32' E 018°32'0 0.0
2015-Aug-23 00:32N 54°32' E 018°32'0 0.0
2015-Aug-22 23:32N 54°32' E 018°32'0 0.0
2015-Aug-22 22:32N 54°32' E 018°32'0 0.0
2015-Aug-22 21:32N 54°32' E 018°32'0 0.5
2015-Aug-22 20:33N 54°32' E 018°32'1110.7
2015-Aug-22 19:34N 54°34' E 018°50'1616.4
2015-Aug-22 18:34N 54°49' E 019°00'1616.3
2015-Aug-22 17:34N 55°04' E 019°11'1616.5
2015-Aug-22 16:33N 55°20' E 019°20'1716.6
2015-Aug-22 15:34N 55°36' E 019°29'1616.5
2015-Aug-22 14:34N 55°51' E 019°38'1716.5
2015-Aug-22 13:34N 56°07' E 019°47'1616.5
2015-Aug-22 12:34N 56°23' E 019°56'1616.5
2015-Aug-22 11:34N 56°39' E 020°05'1716.6
2015-Aug-22 10:34N 56°54' E 020°13'1716.6
2015-Aug-22 09:33N 57°10' E 020°23'1616.3
2015-Aug-22 08:34N 57°26' E 020°32'1616.2
2015-Aug-22 07:33N 57°41' E 020°41'1716.1
2015-Aug-22 06:32N 57°57' E 020°51'10116.8
2015-Aug-22 00:28N 59°26' E 022°24'2317.9
2015-Aug-21 23:10N 59°34' E 023°07'1118.2
2015-Aug-21 22:32N 59°38' E 023°29'1918.3
2015-Aug-21 21:29N 59°43' E 024°05'1718.5
2015-Aug-21 20:34N 59°49' E 024°37'1817.8
2015-Aug-21 19:34N 60°00' E 025°05'13 1.1
2015-Aug-21 07:14N 60°13' E 025°12'0 0.0
2015-Aug-21 06:32N 60°13' E 025°12'0 0.1
2015-Aug-21 05:33N 60°13' E 025°12'1111.0
2015-Aug-21 04:34N 60°02' E 025°07'1816.2
2015-Aug-21 03:28N 59°47' E 024°49'1617.7
2015-Aug-21 02:34N 59°42' E 024°19'1818.2
2015-Aug-21 01:33N 59°36' E 023°45'1818.2
2015-Aug-21 00:33N 59°31' E 023°10'1918.3
2015-Aug-20 23:30N 59°24' E 022°34'1717.9
2015-Aug-20 22:33N 59°14' E 022°08'18117.8
2015-Aug-20 12:24N 56°26' E 020°01'1618.7
2015-Aug-20 11:34N 56°12' E 019°51'1918.8
2015-Aug-20 10:34N 55°54' E 019°39'1919.0
2015-Aug-20 09:33N 55°36' E 019°29'2519.1
2015-Aug-20 08:15N 55°12' E 019°15'1319.0
2015-Aug-20 07:34N 54°60' E 019°09'1919.0
2015-Aug-20 06:33N 54°42' E 018°58'1515.2
2015-Aug-20 05:33N 54°32' E 018°38'4 3.4
2015-Aug-20 04:31N 54°32' E 018°32'0 0.0
2015-Aug-20 03:31N 54°32' E 018°32'0 0.0
2015-Aug-20 02:31N 54°32' E 018°32'0 0.0
2015-Aug-20 01:31N 54°32' E 018°32'0 0.0
2015-Aug-20 00:31N 54°32' E 018°32'0 0.0
2015-Aug-19 23:31N 54°32' E 018°32'0 0.0
2015-Aug-19 22:31N 54°32' E 018°32'0 0.0
2015-Aug-19 21:31N 54°32' E 018°32'0 0.4
2015-Aug-19 20:33N 54°32' E 018°32'1111.1
2015-Aug-19 19:34N 54°34' E 018°51'1716.7
2015-Aug-19 18:34N 54°50' E 019°03'1717.2
2015-Aug-19 17:34N 55°06' E 019°12'1717.4
2015-Aug-19 16:33N 55°23' E 019°21'1717.3
2015-Aug-19 15:33N 55°39' E 019°30'26717.5
2015-Aug-19 00:15N 59°37' E 023°18'6717.7
2015-Aug-18 20:28N 60°11' E 025°13'26 2.2
2015-Aug-18 08:33N 59°59' E 025°60'1919.3
2015-Aug-18 07:34N 60°01' E 026°38'  
Track history (hours):
 
Tides and Currents Weather Stations Pressure Air Temp Water Temp Dewpoint Dewpoint Depression Visibility Wind Speed Wind Dir Waves Ship Positions

Finnhawk

Last reported at 2015-Aug-28 02:33 UTC. Time now 2015-Aug-28 07:35 UTC.
Position N 59°41' E 024°04'.

Length 163 m; draft 5.9 m.

Type: Ship. MMSI: 230007000.

Date/timePositionNaut miles runAvg speedWind from/ knotsBaromVisibWave heightAir tempDewpointWater temp
2015-Aug-28 02:33N 59°41' E 024°04'1716.9
2015-Aug-28 01:33N 59°35' E 023°33'21716.4
2015-Aug-27 12:18N 56°29' E 020°02'3117.6
2015-Aug-27 10:33N 55°59' E 019°44'1817.7
2015-Aug-27 09:33N 55°43' E 019°34'1817.6
2015-Aug-27 08:33N 55°26' E 019°24'1817.8
2015-Aug-27 07:33N 55°09' E 019°14'1817.6
2015-Aug-27 06:33N 54°53' E 019°05'1818.1
2015-Aug-27 05:34N 54°36' E 018°54'1312.8
2015-Aug-27 04:33N 54°32' E 018°33'1 0.6
2015-Aug-27 03:33N 54°32' E 018°32'0 0.0
2015-Aug-27 02:33N 54°32' E 018°32'0 0.0
2015-Aug-27 01:33N 54°32' E 018°32'0 0.0
2015-Aug-27 00:33N 54°32' E 018°32'0 0.0
2015-Aug-26 23:33N 54°32' E 018°32'0 0.0
2015-Aug-26 22:33N 54°32' E 018°32'0 0.0
2015-Aug-26 21:30N 54°32' E 018°32'0 0.5
2015-Aug-26 20:33N 54°32' E 018°32'1110.5
2015-Aug-26 19:34N 54°34' E 018°50'1515.0
2015-Aug-26 18:34N 54°47' E 019°01'1615.9
2015-Aug-26 17:33N 55°02' E 019°10'1615.7
2015-Aug-26 16:33N 55°17' E 019°18'1615.6
2015-Aug-26 15:33N 55°32' E 019°27'26815.4
2015-Aug-25 22:11N 59°34' E 023°04'1016.4
2015-Aug-25 21:34N 59°37' E 023°23'1616.1
2015-Aug-25 20:33N 59°43' E 023°53'1616.3
2015-Aug-25 19:33N 59°49' E 024°23'1616.4
2015-Aug-25 18:34N 59°55' E 024°53'1615.9
2015-Aug-25 17:34N 60°08' E 025°12'5 0.5
2015-Aug-25 07:12N 60°13' E 025°12'0 0.0
2015-Aug-25 06:33N 60°13' E 025°12'0 0.0
2015-Aug-25 05:30N 60°13' E 025°12'0 0.0
2015-Aug-25 04:30N 60°13' E 025°12'0 0.0
2015-Aug-25 03:30N 60°13' E 025°12'0 0.0
2015-Aug-24 23:09N 60°13' E 025°12'0 0.0
2015-Aug-24 19:30N 60°13' E 025°12'0 0.0
2015-Aug-24 18:33N 60°13' E 025°12'0 0.0
2015-Aug-24 17:27N 60°13' E 025°12'21 1.6
2015-Aug-24 04:29N 59°53' E 024°59'1515.4
2015-Aug-24 03:31N 59°45' E 024°34'1616.8
2015-Aug-24 02:33N 59°41' E 024°04'1716.7
2015-Aug-24 01:33N 59°36' E 023°32'1716.8
2015-Aug-24 00:33N 59°30' E 023°01'1717.4
2015-Aug-23 23:33N 59°23' E 022°30'1717.1
2015-Aug-23 22:33N 59°12' E 022°03'15617.1
2015-Aug-23 13:25N 56°47' E 020°14'1517.4
2015-Aug-23 12:33N 56°33' E 020°05'1717.2
2015-Aug-23 11:33N 56°17' E 019°55'1717.2
2015-Aug-23 10:34N 56°01' E 019°44'1817.5
2015-Aug-23 09:33N 55°45' E 019°33'1817.5
2015-Aug-23 08:33N 55°28' E 019°24'1817.6
2015-Aug-23 07:33N 55°11' E 019°15'1817.6
2015-Aug-23 06:33N 54°54' E 019°05'1817.8
2015-Aug-23 05:33N 54°37' E 018°55'1312.9
2015-Aug-23 04:33N 54°32' E 018°35'2 1.9
2015-Aug-23 03:32N 54°32' E 018°32'0 0.0
2015-Aug-23 02:32N 54°32' E 018°32'0 0.0
2015-Aug-23 01:32N 54°32' E 018°32'0 0.0
2015-Aug-23 00:32N 54°32' E 018°32'0 0.0
2015-Aug-22 23:32N 54°32' E 018°32'0 0.0
2015-Aug-22 22:32N 54°32' E 018°32'0 0.0
2015-Aug-22 21:32N 54°32' E 018°32'0 0.5
2015-Aug-22 20:33N 54°32' E 018°32'1110.7
2015-Aug-22 19:34N 54°34' E 018°50'1616.4
2015-Aug-22 18:34N 54°49' E 019°00'1616.3
2015-Aug-22 17:34N 55°04' E 019°11'1616.5
2015-Aug-22 16:33N 55°20' E 019°20'1716.6
2015-Aug-22 15:34N 55°36' E 019°29'1616.5
2015-Aug-22 14:34N 55°51' E 019°38'1716.5
2015-Aug-22 13:34N 56°07' E 019°47'1616.5
2015-Aug-22 12:34N 56°23' E 019°56'1616.5
2015-Aug-22 11:34N 56°39' E 020°05'1716.6
2015-Aug-22 10:34N 56°54' E 020°13'1716.6
2015-Aug-22 09:33N 57°10' E 020°23'1616.3
2015-Aug-22 08:34N 57°26' E 020°32'1616.2
2015-Aug-22 07:33N 57°41' E 020°41'1716.1
2015-Aug-22 06:32N 57°57' E 020°51'10116.8
2015-Aug-22 00:28N 59°26' E 022°24'2317.9
2015-Aug-21 23:10N 59°34' E 023°07'1118.2
2015-Aug-21 22:32N 59°38' E 023°29'1918.3
2015-Aug-21 21:29N 59°43' E 024°05'1718.5
2015-Aug-21 20:34N 59°49' E 024°37'1817.8
2015-Aug-21 19:34N 60°00' E 025°05'13 1.1
2015-Aug-21 07:14N 60°13' E 025°12'0 0.0
2015-Aug-21 06:32N 60°13' E 025°12'0 0.1
2015-Aug-21 05:33N 60°13' E 025°12'1111.0
2015-Aug-21 04:34N 60°02' E 025°07'1816.2
2015-Aug-21 03:28N 59°47' E 024°49'1617.7
2015-Aug-21 02:34N 59°42' E 024°19'1818.2
2015-Aug-21 01:33N 59°36' E 023°45'1818.2
2015-Aug-21 00:33N 59°31' E 023°10'1918.3
2015-Aug-20 23:30N 59°24' E 022°34'1717.9
2015-Aug-20 22:33N 59°14' E 022°08'18117.8
2015-Aug-20 12:24N 56°26' E 020°01'1618.7
2015-Aug-20 11:34N 56°12' E 019°51'1918.8
2015-Aug-20 10:34N 55°54' E 019°39'1919.0
2015-Aug-20 09:33N 55°36' E 019°29'2519.1
2015-Aug-20 08:15N 55°12' E 019°15'1319.0
2015-Aug-20 07:34N 54°60' E 019°09'1919.0
2015-Aug-20 06:33N 54°42' E 018°58'1515.2
2015-Aug-20 05:33N 54°32' E 018°38'4 3.4
2015-Aug-20 04:31N 54°32' E 018°32'0 0.0
2015-Aug-20 03:31N 54°32' E 018°32'0 0.0
2015-Aug-20 02:31N 54°32' E 018°32'0 0.0
2015-Aug-20 01:31N 54°32' E 018°32'0 0.0
2015-Aug-20 00:31N 54°32' E 018°32'0 0.0
2015-Aug-19 23:31N 54°32' E 018°32'0 0.0
2015-Aug-19 22:31N 54°32' E 018°32'0 0.0
2015-Aug-19 21:31N 54°32' E 018°32'0 0.4
2015-Aug-19 20:33N 54°32' E 018°32'1111.1
2015-Aug-19 19:34N 54°34' E 018°51'1716.7
2015-Aug-19 18:34N 54°50' E 019°03'1717.2
2015-Aug-19 17:34N 55°06' E 019°12'1717.4
2015-Aug-19 16:33N 55°23' E 019°21'1717.3
2015-Aug-19 15:33N 55°39' E 019°30'26717.5
2015-Aug-19 00:15N 59°37' E 023°18'6717.7
2015-Aug-18 20:28N 60°11' E 025°13'26 2.2
2015-Aug-18 08:33N 59°59' E 025°60'1919.3
2015-Aug-18 07:34N 60°01' E 026°38'  

Dump ship's entire track history